sensor_id;sensor_type;location;lat;lon;timestamp;P1;durP1;ratioP1;P2;durP2;ratioP2
8100;SDS011;4093;53.470;9.832;2023-12-28T00:00:11;5.40;;;2.90;;
8100;SDS011;4093;53.470;9.832;2023-12-28T00:02:39;4.00;;;2.90;;
8100;SDS011;4093;53.470;9.832;2023-12-28T00:05:08;4.17;;;2.63;;
8100;SDS011;4093;53.470;9.832;2023-12-28T00:07:35;4.17;;;3.10;;
8100;SDS011;4093;53.470;9.832;2023-12-28T00:10:03;3.33;;;3.00;;
8100;SDS011;4093;53.470;9.832;2023-12-28T00:12:33;6.13;;;3.10;;
8100;SDS011;4093;53.470;9.832;2023-12-28T00:15:01;4.03;;;2.90;;
8100;SDS011;4093;53.470;9.832;2023-12-28T00:17:29;5.30;;;3.23;;
8100;SDS011;4093;53.470;9.832;2023-12-28T00:19:57;4.07;;;2.87;;
8100;SDS011;4093;53.470;9.832;2023-12-28T00:22:25;4.13;;;2.97;;
8100;SDS011;4093;53.470;9.832;2023-12-28T00:24:53;3.57;;;2.77;;
8100;SDS011;4093;53.470;9.832;2023-12-28T00:27:21;5.20;;;2.53;;
8100;SDS011;4093;53.470;9.832;2023-12-28T00:29:50;3.33;;;3.03;;
8100;SDS011;4093;53.470;9.832;2023-12-28T00:32:18;4.70;;;3.00;;
8100;SDS011;4093;53.470;9.832;2023-12-28T00:34:46;3.60;;;2.60;;
8100;SDS011;4093;53.470;9.832;2023-12-28T00:37:13;3.50;;;2.70;;
8100;SDS011;4093;53.470;9.832;2023-12-28T00:39:41;4.23;;;2.80;;
8100;SDS011;4093;53.470;9.832;2023-12-28T00:42:10;5.90;;;3.40;;
8100;SDS011;4093;53.470;9.832;2023-12-28T00:44:38;3.97;;;3.10;;
8100;SDS011;4093;53.470;9.832;2023-12-28T00:47:07;4.10;;;3.13;;
8100;SDS011;4093;53.470;9.832;2023-12-28T00:49:35;4.27;;;3.17;;
8100;SDS011;4093;53.470;9.832;2023-12-28T00:52:03;3.60;;;3.07;;
8100;SDS011;4093;53.470;9.832;2023-12-28T00:54:32;4.07;;;2.70;;
8100;SDS011;4093;53.470;9.832;2023-12-28T00:57:00;3.37;;;3.00;;
8100;SDS011;4093;53.470;9.832;2023-12-28T00:59:27;4.80;;;3.03;;
8100;SDS011;4093;53.470;9.832;2023-12-28T01:01:56;6.87;;;3.50;;
8100;SDS011;4093;53.470;9.832;2023-12-28T01:04:25;5.50;;;3.57;;
8100;SDS011;4093;53.470;9.832;2023-12-28T01:06:53;6.53;;;4.00;;
8100;SDS011;4093;53.470;9.832;2023-12-28T01:09:21;5.13;;;3.60;;
8100;SDS011;4093;53.470;9.832;2023-12-28T01:11:49;4.27;;;3.50;;
8100;SDS011;4093;53.470;9.832;2023-12-28T01:14:17;3.77;;;3.07;;
8100;SDS011;4093;53.470;9.832;2023-12-28T01:16:45;6.80;;;3.10;;
8100;SDS011;4093;53.470;9.832;2023-12-28T01:19:13;4.83;;;3.30;;
8100;SDS011;4093;53.470;9.832;2023-12-28T01:21:42;4.50;;;3.20;;
8100;SDS011;4093;53.470;9.832;2023-12-28T01:24:10;3.67;;;3.03;;
8100;SDS011;4093;53.470;9.832;2023-12-28T01:26:38;4.77;;;3.47;;
8100;SDS011;4093;53.470;9.832;2023-12-28T01:29:06;6.67;;;3.23;;
8100;SDS011;4093;53.470;9.832;2023-12-28T01:31:34;3.70;;;3.30;;
8100;SDS011;4093;53.470;9.832;2023-12-28T01:34:02;4.53;;;3.30;;
8100;SDS011;4093;53.470;9.832;2023-12-28T01:36:30;5.60;;;4.10;;
8100;SDS011;4093;53.470;9.832;2023-12-28T01:38:59;6.57;;;3.50;;
8100;SDS011;4093;53.470;9.832;2023-12-28T01:41:27;6.37;;;3.13;;
8100;SDS011;4093;53.470;9.832;2023-12-28T01:43:55;4.30;;;3.30;;
8100;SDS011;4093;53.470;9.832;2023-12-28T01:46:22;4.27;;;3.43;;
8100;SDS011;4093;53.470;9.832;2023-12-28T01:48:50;3.80;;;3.37;;
8100;SDS011;4093;53.470;9.832;2023-12-28T01:51:19;5.60;;;3.40;;
8100;SDS011;4093;53.470;9.832;2023-12-28T01:53:48;4.73;;;3.40;;
8100;SDS011;4093;53.470;9.832;2023-12-28T01:56:19;3.97;;;3.07;;
8100;SDS011;4093;53.470;9.832;2023-12-28T01:58:48;6.23;;;3.80;;
8100;SDS011;4093;53.470;9.832;2023-12-28T02:01:18;6.37;;;3.17;;
8100;SDS011;4093;53.470;9.832;2023-12-28T02:03:47;5.73;;;3.57;;
8100;SDS011;4093;53.470;9.832;2023-12-28T02:06:16;6.67;;;3.53;;
8100;SDS011;4093;53.470;9.832;2023-12-28T02:08:45;3.97;;;3.20;;
8100;SDS011;4093;53.470;9.832;2023-12-28T02:11:13;3.97;;;3.30;;
8100;SDS011;4093;53.470;9.832;2023-12-28T02:13:43;3.47;;;3.17;;
8100;SDS011;4093;53.470;9.832;2023-12-28T02:16:11;6.67;;;3.23;;
8100;SDS011;4093;53.470;9.832;2023-12-28T02:18:45;5.47;;;3.23;;
8100;SDS011;4093;53.470;9.832;2023-12-28T02:21:17;6.47;;;3.30;;
8100;SDS011;4093;53.470;9.832;2023-12-28T02:23:47;5.73;;;3.43;;
8100;SDS011;4093;53.470;9.832;2023-12-28T02:26:17;5.20;;;3.50;;
8100;SDS011;4093;53.470;9.832;2023-12-28T02:28:44;4.80;;;3.40;;
8100;SDS011;4093;53.470;9.832;2023-12-28T02:31:14;5.83;;;3.50;;
8100;SDS011;4093;53.470;9.832;2023-12-28T02:33:49;5.33;;;3.77;;
8100;SDS011;4093;53.470;9.832;2023-12-28T02:36:22;4.73;;;3.40;;
8100;SDS011;4093;53.470;9.832;2023-12-28T02:38:51;4.53;;;3.60;;
8100;SDS011;4093;53.470;9.832;2023-12-28T02:41:24;5.17;;;3.50;;
8100;SDS011;4093;53.470;9.832;2023-12-28T02:43:53;4.80;;;3.53;;
8100;SDS011;4093;53.470;9.832;2023-12-28T02:46:21;4.93;;;3.53;;
8100;SDS011;4093;53.470;9.832;2023-12-28T02:48:49;6.40;;;3.93;;
8100;SDS011;4093;53.470;9.832;2023-12-28T02:51:17;4.20;;;3.80;;
8100;SDS011;4093;53.470;9.832;2023-12-28T02:53:45;6.13;;;3.60;;
8100;SDS011;4093;53.470;9.832;2023-12-28T02:56:13;8.20;;;3.90;;
8100;SDS011;4093;53.470;9.832;2023-12-28T02:58:42;5.90;;;4.40;;
8100;SDS011;4093;53.470;9.832;2023-12-28T03:01:10;4.17;;;3.77;;
8100;SDS011;4093;53.470;9.832;2023-12-28T03:03:38;6.67;;;3.93;;
8100;SDS011;4093;53.470;9.832;2023-12-28T03:06:06;8.53;;;4.17;;
8100;SDS011;4093;53.470;9.832;2023-12-28T03:08:34;6.70;;;4.10;;
8100;SDS011;4093;53.470;9.832;2023-12-28T03:11:02;5.33;;;4.13;;
8100;SDS011;4093;53.470;9.832;2023-12-28T03:13:30;4.30;;;3.43;;
8100;SDS011;4093;53.470;9.832;2023-12-28T03:16:00;6.63;;;3.93;;
8100;SDS011;4093;53.470;9.832;2023-12-28T03:18:28;5.43;;;3.80;;
8100;SDS011;4093;53.470;9.832;2023-12-28T03:20:56;4.00;;;3.60;;
8100;SDS011;4093;53.470;9.832;2023-12-28T03:23:24;4.07;;;3.67;;
8100;SDS011;4093;53.470;9.832;2023-12-28T03:25:51;3.73;;;3.43;;
8100;SDS011;4093;53.470;9.832;2023-12-28T03:28:19;4.33;;;3.70;;
8100;SDS011;4093;53.470;9.832;2023-12-28T03:30:48;6.50;;;3.80;;
8100;SDS011;4093;53.470;9.832;2023-12-28T03:33:17;4.90;;;3.70;;
8100;SDS011;4093;53.470;9.832;2023-12-28T03:35:45;7.13;;;4.27;;
8100;SDS011;4093;53.470;9.832;2023-12-28T03:38:13;4.37;;;3.87;;
8100;SDS011;4093;53.470;9.832;2023-12-28T03:40:40;5.07;;;4.07;;
8100;SDS011;4093;53.470;9.832;2023-12-28T03:43:08;6.17;;;3.80;;
8100;SDS011;4093;53.470;9.832;2023-12-28T03:45:36;6.27;;;4.20;;
8100;SDS011;4093;53.470;9.832;2023-12-28T03:48:04;4.73;;;4.00;;
8100;SDS011;4093;53.470;9.832;2023-12-28T03:50:34;6.40;;;4.20;;
8100;SDS011;4093;53.470;9.832;2023-12-28T03:53:01;6.97;;;4.27;;
8100;SDS011;4093;53.470;9.832;2023-12-28T03:55:29;6.97;;;4.10;;
8100;SDS011;4093;53.470;9.832;2023-12-28T03:57:57;5.73;;;4.03;;
8100;SDS011;4093;53.470;9.832;2023-12-28T04:00:26;6.93;;;4.03;;
8100;SDS011;4093;53.470;9.832;2023-12-28T04:02:54;5.63;;;3.47;;
8100;SDS011;4093;53.470;9.832;2023-12-28T04:05:25;6.17;;;4.53;;
8100;SDS011;4093;53.470;9.832;2023-12-28T04:07:53;5.50;;;3.77;;
8100;SDS011;4093;53.470;9.832;2023-12-28T04:10:28;5.87;;;3.97;;
8100;SDS011;4093;53.470;9.832;2023-12-28T04:12:57;5.63;;;4.07;;
8100;SDS011;4093;53.470;9.832;2023-12-28T04:15:26;8.77;;;4.37;;
8100;SDS011;4093;53.470;9.832;2023-12-28T04:17:54;5.07;;;4.00;;
8100;SDS011;4093;53.470;9.832;2023-12-28T04:20:22;6.40;;;3.93;;
8100;SDS011;4093;53.470;9.832;2023-12-28T04:22:50;6.97;;;4.67;;
8100;SDS011;4093;53.470;9.832;2023-12-28T04:25:20;7.57;;;4.10;;
8100;SDS011;4093;53.470;9.832;2023-12-28T04:27:48;6.57;;;4.13;;
8100;SDS011;4093;53.470;9.832;2023-12-28T04:30:16;5.40;;;4.23;;
8100;SDS011;4093;53.470;9.832;2023-12-28T04:32:44;4.73;;;3.97;;
8100;SDS011;4093;53.470;9.832;2023-12-28T04:35:11;4.73;;;4.03;;
8100;SDS011;4093;53.470;9.832;2023-12-28T04:37:39;5.53;;;3.90;;
8100;SDS011;4093;53.470;9.832;2023-12-28T04:40:09;5.00;;;3.83;;
8100;SDS011;4093;53.470;9.832;2023-12-28T04:42:37;5.10;;;4.10;;
8100;SDS011;4093;53.470;9.832;2023-12-28T04:45:05;4.30;;;3.47;;
8100;SDS011;4093;53.470;9.832;2023-12-28T04:47:34;7.50;;;4.10;;
8100;SDS011;4093;53.470;9.832;2023-12-28T04:50:02;6.97;;;4.03;;
8100;SDS011;4093;53.470;9.832;2023-12-28T04:52:31;5.07;;;3.97;;
8100;SDS011;4093;53.470;9.832;2023-12-28T04:54:59;5.20;;;4.10;;
8100;SDS011;4093;53.470;9.832;2023-12-28T04:57:28;7.27;;;4.70;;
8100;SDS011;4093;53.470;9.832;2023-12-28T04:59:56;6.37;;;4.10;;
8100;SDS011;4093;53.470;9.832;2023-12-28T05:02:24;6.70;;;4.50;;
8100;SDS011;4093;53.470;9.832;2023-12-28T05:04:51;4.60;;;4.10;;
8100;SDS011;4093;53.470;9.832;2023-12-28T05:07:19;6.40;;;4.33;;
8100;SDS011;4093;53.470;9.832;2023-12-28T05:09:47;6.17;;;4.33;;
8100;SDS011;4093;53.470;9.832;2023-12-28T05:12:15;5.23;;;4.00;;
8100;SDS011;4093;53.470;9.832;2023-12-28T05:14:44;6.20;;;3.97;;
8100;SDS011;4093;53.470;9.832;2023-12-28T05:17:12;5.30;;;4.30;;
8100;SDS011;4093;53.470;9.832;2023-12-28T05:19:40;10.20;;;4.63;;
8100;SDS011;4093;53.470;9.832;2023-12-28T05:22:08;4.80;;;4.30;;
8100;SDS011;4093;53.470;9.832;2023-12-28T05:24:37;5.97;;;4.20;;
8100;SDS011;4093;53.470;9.832;2023-12-28T05:27:05;6.83;;;4.20;;
8100;SDS011;4093;53.470;9.832;2023-12-28T05:29:33;9.17;;;4.43;;
8100;SDS011;4093;53.470;9.832;2023-12-28T05:32:02;6.30;;;3.97;;
8100;SDS011;4093;53.470;9.832;2023-12-28T05:34:30;5.87;;;4.50;;
8100;SDS011;4093;53.470;9.832;2023-12-28T05:36:59;7.70;;;4.20;;
8100;SDS011;4093;53.470;9.832;2023-12-28T05:39:27;7.13;;;4.50;;
8100;SDS011;4093;53.470;9.832;2023-12-28T05:41:55;8.20;;;4.40;;
8100;SDS011;4093;53.470;9.832;2023-12-28T05:44:23;6.07;;;4.20;;
8100;SDS011;4093;53.470;9.832;2023-12-28T05:46:50;5.90;;;4.17;;
8100;SDS011;4093;53.470;9.832;2023-12-28T05:49:20;5.23;;;3.67;;
8100;SDS011;4093;53.470;9.832;2023-12-28T05:51:48;7.40;;;4.70;;
8100;SDS011;4093;53.470;9.832;2023-12-28T05:54:16;4.17;;;3.77;;
8100;SDS011;4093;53.470;9.832;2023-12-28T05:56:43;6.87;;;4.47;;
8100;SDS011;4093;53.470;9.832;2023-12-28T05:59:11;4.27;;;3.70;;
8100;SDS011;4093;53.470;9.832;2023-12-28T06:01:42;7.30;;;4.43;;
8100;SDS011;4093;53.470;9.832;2023-12-28T06:04:10;7.67;;;4.10;;
8100;SDS011;4093;53.470;9.832;2023-12-28T06:06:40;6.27;;;4.13;;
8100;SDS011;4093;53.470;9.832;2023-12-28T06:09:08;7.23;;;4.53;;
8100;SDS011;4093;53.470;9.832;2023-12-28T06:11:36;6.57;;;3.93;;
8100;SDS011;4093;53.470;9.832;2023-12-28T06:14:04;6.30;;;4.33;;
8100;SDS011;4093;53.470;9.832;2023-12-28T06:16:31;5.80;;;3.93;;
8100;SDS011;4093;53.470;9.832;2023-12-28T06:19:00;7.83;;;4.17;;
8100;SDS011;4093;53.470;9.832;2023-12-28T06:21:28;6.83;;;4.33;;
8100;SDS011;4093;53.470;9.832;2023-12-28T06:23:58;7.10;;;3.63;;
8100;SDS011;4093;53.470;9.832;2023-12-28T06:26:26;5.90;;;3.47;;
8100;SDS011;4093;53.470;9.832;2023-12-28T06:28:53;5.17;;;4.00;;
8100;SDS011;4093;53.470;9.832;2023-12-28T06:31:21;5.90;;;3.60;;
8100;SDS011;4093;53.470;9.832;2023-12-28T06:33:49;5.47;;;3.70;;
8100;SDS011;4093;53.470;9.832;2023-12-28T06:36:17;6.40;;;3.70;;
8100;SDS011;4093;53.470;9.832;2023-12-28T06:38:46;9.27;;;3.80;;
8100;SDS011;4093;53.470;9.832;2023-12-28T06:41:15;5.97;;;4.23;;
8100;SDS011;4093;53.470;9.832;2023-12-28T06:43:43;6.47;;;3.10;;
8100;SDS011;4093;53.470;9.832;2023-12-28T06:46:11;8.13;;;4.20;;
8100;SDS011;4093;53.470;9.832;2023-12-28T06:48:39;4.37;;;3.97;;
8100;SDS011;4093;53.470;9.832;2023-12-28T06:51:07;4.30;;;3.70;;
8100;SDS011;4093;53.470;9.832;2023-12-28T06:53:35;4.93;;;3.67;;
8100;SDS011;4093;53.470;9.832;2023-12-28T06:56:03;5.97;;;3.80;;
8100;SDS011;4093;53.470;9.832;2023-12-28T06:58:33;4.03;;;3.60;;
8100;SDS011;4093;53.470;9.832;2023-12-28T07:01:02;4.43;;;3.73;;
8100;SDS011;4093;53.470;9.832;2023-12-28T07:03:30;9.70;;;3.70;;
8100;SDS011;4093;53.470;9.832;2023-12-28T07:05:59;8.20;;;3.90;;
8100;SDS011;4093;53.470;9.832;2023-12-28T07:08:27;9.03;;;3.80;;
8100;SDS011;4093;53.470;9.832;2023-12-28T07:10:57;5.67;;;3.20;;
8100;SDS011;4093;53.470;9.832;2023-12-28T07:13:25;5.73;;;3.53;;
8100;SDS011;4093;53.470;9.832;2023-12-28T07:15:54;6.53;;;3.53;;
8100;SDS011;4093;53.470;9.832;2023-12-28T07:18:26;8.67;;;3.63;;
8100;SDS011;4093;53.470;9.832;2023-12-28T07:20:54;5.57;;;3.30;;
8100;SDS011;4093;53.470;9.832;2023-12-28T07:23:22;9.67;;;3.90;;
8100;SDS011;4093;53.470;9.832;2023-12-28T07:25:50;6.30;;;3.53;;
8100;SDS011;4093;53.470;9.832;2023-12-28T07:28:18;5.90;;;3.60;;
8100;SDS011;4093;53.470;9.832;2023-12-28T07:30:46;7.27;;;3.33;;
8100;SDS011;4093;53.470;9.832;2023-12-28T07:33:16;7.40;;;3.37;;
8100;SDS011;4093;53.470;9.832;2023-12-28T07:35:44;4.80;;;3.37;;
8100;SDS011;4093;53.470;9.832;2023-12-28T07:38:11;6.47;;;3.47;;
8100;SDS011;4093;53.470;9.832;2023-12-28T07:40:39;7.97;;;3.33;;
8100;SDS011;4093;53.470;9.832;2023-12-28T07:43:07;8.10;;;3.57;;
8100;SDS011;4093;53.470;9.832;2023-12-28T07:45:35;7.33;;;3.97;;
8100;SDS011;4093;53.470;9.832;2023-12-28T07:48:05;7.93;;;3.87;;
8100;SDS011;4093;53.470;9.832;2023-12-28T07:50:35;7.17;;;3.50;;
8100;SDS011;4093;53.470;9.832;2023-12-28T07:53:03;7.37;;;3.90;;
8100;SDS011;4093;53.470;9.832;2023-12-28T07:55:31;9.13;;;3.60;;
8100;SDS011;4093;53.470;9.832;2023-12-28T07:57:59;4.87;;;3.13;;
8100;SDS011;4093;53.470;9.832;2023-12-28T08:00:27;4.83;;;3.00;;
8100;SDS011;4093;53.470;9.832;2023-12-28T08:02:55;6.90;;;3.37;;
8100;SDS011;4093;53.470;9.832;2023-12-28T08:05:23;6.10;;;3.30;;
8100;SDS011;4093;53.470;9.832;2023-12-28T08:07:52;8.37;;;3.20;;
8100;SDS011;4093;53.470;9.832;2023-12-28T08:10:20;6.77;;;3.10;;
8100;SDS011;4093;53.470;9.832;2023-12-28T08:12:48;7.40;;;3.57;;
8100;SDS011;4093;53.470;9.832;2023-12-28T08:15:16;7.13;;;3.40;;
8100;SDS011;4093;53.470;9.832;2023-12-28T08:17:44;4.93;;;3.20;;
8100;SDS011;4093;53.470;9.832;2023-12-28T08:20:12;7.77;;;3.30;;
8100;SDS011;4093;53.470;9.832;2023-12-28T08:22:39;7.17;;;3.60;;
8100;SDS011;4093;53.470;9.832;2023-12-28T08:25:09;10.37;;;4.17;;
8100;SDS011;4093;53.470;9.832;2023-12-28T08:27:37;8.57;;;3.53;;
8100;SDS011;4093;53.470;9.832;2023-12-28T08:30:05;8.87;;;3.80;;
8100;SDS011;4093;53.470;9.832;2023-12-28T08:32:34;9.10;;;3.10;;
8100;SDS011;4093;53.470;9.832;2023-12-28T08:35:02;5.37;;;3.37;;
8100;SDS011;4093;53.470;9.832;2023-12-28T08:37:30;6.57;;;2.73;;
8100;SDS011;4093;53.470;9.832;2023-12-28T08:39:58;7.27;;;3.33;;
8100;SDS011;4093;53.470;9.832;2023-12-28T08:42:27;4.47;;;2.80;;
8100;SDS011;4093;53.470;9.832;2023-12-28T08:44:55;7.13;;;3.10;;
8100;SDS011;4093;53.470;9.832;2023-12-28T08:47:23;7.47;;;3.63;;
8100;SDS011;4093;53.470;9.832;2023-12-28T08:49:51;7.70;;;3.23;;
8100;SDS011;4093;53.470;9.832;2023-12-28T08:52:19;7.40;;;3.13;;
8100;SDS011;4093;53.470;9.832;2023-12-28T08:54:47;5.67;;;2.60;;
8100;SDS011;4093;53.470;9.832;2023-12-28T08:57:15;9.50;;;3.10;;
8100;SDS011;4093;53.470;9.832;2023-12-28T08:59:55;10.93;;;3.70;;
8100;SDS011;4093;53.470;9.832;2023-12-28T09:02:23;5.03;;;2.70;;
8100;SDS011;4093;53.470;9.832;2023-12-28T09:04:51;10.13;;;3.40;;
8100;SDS011;4093;53.470;9.832;2023-12-28T09:07:19;8.50;;;3.07;;
8100;SDS011;4093;53.470;9.832;2023-12-28T09:09:47;7.97;;;3.07;;
8100;SDS011;4093;53.470;9.832;2023-12-28T09:12:15;8.40;;;3.30;;
8100;SDS011;4093;53.470;9.832;2023-12-28T09:14:43;7.37;;;3.40;;
8100;SDS011;4093;53.470;9.832;2023-12-28T09:17:12;6.03;;;2.87;;
8100;SDS011;4093;53.470;9.832;2023-12-28T09:19:40;10.47;;;3.60;;
8100;SDS011;4093;53.470;9.832;2023-12-28T09:22:09;7.37;;;3.13;;
8100;SDS011;4093;53.470;9.832;2023-12-28T09:24:36;7.23;;;3.10;;
8100;SDS011;4093;53.470;9.832;2023-12-28T09:27:05;5.90;;;2.73;;
8100;SDS011;4093;53.470;9.832;2023-12-28T09:29:33;7.00;;;3.40;;
8100;SDS011;4093;53.470;9.832;2023-12-28T09:32:01;7.23;;;3.43;;
8100;SDS011;4093;53.470;9.832;2023-12-28T09:34:30;11.03;;;2.80;;
8100;SDS011;4093;53.470;9.832;2023-12-28T09:36:58;6.27;;;2.70;;
8100;SDS011;4093;53.470;9.832;2023-12-28T09:39:28;9.53;;;3.57;;
8100;SDS011;4093;53.470;9.832;2023-12-28T09:41:58;9.27;;;3.27;;
8100;SDS011;4093;53.470;9.832;2023-12-28T09:44:30;9.30;;;3.40;;
8100;SDS011;4093;53.470;9.832;2023-12-28T09:47:01;7.07;;;3.10;;
8100;SDS011;4093;53.470;9.832;2023-12-28T09:49:32;8.10;;;3.03;;
8100;SDS011;4093;53.470;9.832;2023-12-28T09:52:01;9.13;;;3.20;;
8100;SDS011;4093;53.470;9.832;2023-12-28T09:54:29;7.90;;;3.30;;
8100;SDS011;4093;53.470;9.832;2023-12-28T09:56:57;6.13;;;3.03;;
8100;SDS011;4093;53.470;9.832;2023-12-28T09:59:25;8.20;;;2.57;;
8100;SDS011;4093;53.470;9.832;2023-12-28T10:01:55;8.20;;;3.13;;
8100;SDS011;4093;53.470;9.832;2023-12-28T10:04:23;9.50;;;3.57;;
8100;SDS011;4093;53.470;9.832;2023-12-28T10:06:53;12.00;;;3.27;;
8100;SDS011;4093;53.470;9.832;2023-12-28T10:09:21;11.03;;;3.50;;
8100;SDS011;4093;53.470;9.832;2023-12-28T10:11:49;7.70;;;3.03;;
8100;SDS011;4093;53.470;9.832;2023-12-28T10:14:16;12.53;;;3.47;;
8100;SDS011;4093;53.470;9.832;2023-12-28T10:16:45;8.00;;;3.80;;
8100;SDS011;4093;53.470;9.832;2023-12-28T10:19:12;8.33;;;3.17;;
8100;SDS011;4093;53.470;9.832;2023-12-28T10:21:41;9.20;;;2.80;;
8100;SDS011;4093;53.470;9.832;2023-12-28T10:24:11;7.23;;;3.20;;
8100;SDS011;4093;53.470;9.832;2023-12-28T10:26:39;7.83;;;3.60;;
8100;SDS011;4093;53.470;9.832;2023-12-28T10:29:08;9.97;;;3.50;;
8100;SDS011;4093;53.470;9.832;2023-12-28T10:31:37;10.27;;;3.43;;
8100;SDS011;4093;53.470;9.832;2023-12-28T10:34:06;11.93;;;3.30;;
8100;SDS011;4093;53.470;9.832;2023-12-28T10:36:34;14.63;;;3.63;;
8100;SDS011;4093;53.470;9.832;2023-12-28T10:39:04;10.37;;;3.80;;
8100;SDS011;4093;53.470;9.832;2023-12-28T10:41:37;10.27;;;3.23;;
8100;SDS011;4093;53.470;9.832;2023-12-28T10:44:08;13.30;;;4.07;;
8100;SDS011;4093;53.470;9.832;2023-12-28T10:46:38;7.20;;;3.53;;
8100;SDS011;4093;53.470;9.832;2023-12-28T10:49:10;7.83;;;3.40;;
8100;SDS011;4093;53.470;9.832;2023-12-28T10:51:40;12.57;;;3.60;;
8100;SDS011;4093;53.470;9.832;2023-12-28T10:54:14;13.70;;;3.87;;
8100;SDS011;4093;53.470;9.832;2023-12-28T10:56:55;8.53;;;3.33;;
8100;SDS011;4093;53.470;9.832;2023-12-28T10:59:34;10.57;;;3.30;;
8100;SDS011;4093;53.470;9.832;2023-12-28T11:02:07;12.73;;;3.73;;
8100;SDS011;4093;53.470;9.832;2023-12-28T11:04:40;9.93;;;3.50;;
8100;SDS011;4093;53.470;9.832;2023-12-28T11:07:10;11.70;;;3.87;;
8100;SDS011;4093;53.470;9.832;2023-12-28T11:09:41;10.83;;;3.23;;
8100;SDS011;4093;53.470;9.832;2023-12-28T11:12:11;9.67;;;3.30;;
8100;SDS011;4093;53.470;9.832;2023-12-28T11:14:39;10.87;;;3.90;;
8100;SDS011;4093;53.470;9.832;2023-12-28T11:17:07;9.33;;;3.90;;
8100;SDS011;4093;53.470;9.832;2023-12-28T11:19:37;11.77;;;3.37;;
8100;SDS011;4093;53.470;9.832;2023-12-28T11:22:06;17.20;;;4.73;;
8100;SDS011;4093;53.470;9.832;2023-12-28T11:24:35;8.37;;;3.10;;
8100;SDS011;4093;53.470;9.832;2023-12-28T11:27:03;11.33;;;4.20;;
8100;SDS011;4093;53.470;9.832;2023-12-28T11:29:38;9.27;;;3.13;;
8100;SDS011;4093;53.470;9.832;2023-12-28T11:32:05;13.17;;;4.93;;
8100;SDS011;4093;53.470;9.832;2023-12-28T11:34:35;17.67;;;4.13;;
8100;SDS011;4093;53.470;9.832;2023-12-28T11:37:04;11.93;;;3.43;;
8100;SDS011;4093;53.470;9.832;2023-12-28T11:39:34;8.73;;;3.63;;
8100;SDS011;4093;53.470;9.832;2023-12-28T11:42:06;9.83;;;3.57;;
8100;SDS011;4093;53.470;9.832;2023-12-28T11:44:38;13.80;;;4.30;;
8100;SDS011;4093;53.470;9.832;2023-12-28T11:47:11;7.03;;;3.60;;
8100;SDS011;4093;53.470;9.832;2023-12-28T11:49:39;11.83;;;3.40;;
8100;SDS011;4093;53.470;9.832;2023-12-28T11:52:08;12.70;;;3.60;;
8100;SDS011;4093;53.470;9.832;2023-12-28T11:54:38;11.90;;;4.07;;
8100;SDS011;4093;53.470;9.832;2023-12-28T11:57:06;11.67;;;4.07;;
8100;SDS011;4093;53.470;9.832;2023-12-28T11:59:34;13.53;;;3.97;;
8100;SDS011;4093;53.470;9.832;2023-12-28T12:02:03;13.53;;;4.30;;
8100;SDS011;4093;53.470;9.832;2023-12-28T12:07:08;9.93;;;3.57;;
8100;SDS011;4093;53.470;9.832;2023-12-28T12:09:36;13.07;;;3.73;;
8100;SDS011;4093;53.470;9.832;2023-12-28T12:12:04;10.23;;;3.60;;
8100;SDS011;4093;53.470;9.832;2023-12-28T12:14:34;10.47;;;3.63;;
8100;SDS011;4093;53.470;9.832;2023-12-28T12:17:02;12.03;;;3.80;;
8100;SDS011;4093;53.470;9.832;2023-12-28T12:19:30;12.37;;;3.70;;
8100;SDS011;4093;53.470;9.832;2023-12-28T12:21:58;15.03;;;4.63;;
8100;SDS011;4093;53.470;9.832;2023-12-28T12:24:27;7.50;;;4.07;;
8100;SDS011;4093;53.470;9.832;2023-12-28T12:26:57;10.83;;;3.63;;
8100;SDS011;4093;53.470;9.832;2023-12-28T12:29:29;12.07;;;3.97;;
8100;SDS011;4093;53.470;9.832;2023-12-28T12:31:57;14.93;;;4.13;;
8100;SDS011;4093;53.470;9.832;2023-12-28T12:34:27;9.20;;;3.97;;
8100;SDS011;4093;53.470;9.832;2023-12-28T12:37:01;15.60;;;4.13;;
8100;SDS011;4093;53.470;9.832;2023-12-28T12:39:31;12.90;;;4.23;;
8100;SDS011;4093;53.470;9.832;2023-12-28T12:42:00;15.90;;;4.10;;
8100;SDS011;4093;53.470;9.832;2023-12-28T12:44:29;13.23;;;4.30;;
8100;SDS011;4093;53.470;9.832;2023-12-28T12:46:57;15.60;;;3.67;;
8100;SDS011;4093;53.470;9.832;2023-12-28T12:49:26;16.50;;;4.03;;
8100;SDS011;4093;53.470;9.832;2023-12-28T12:51:54;16.57;;;3.90;;
8100;SDS011;4093;53.470;9.832;2023-12-28T12:54:25;10.47;;;3.30;;
8100;SDS011;4093;53.470;9.832;2023-12-28T12:56:55;16.10;;;3.93;;
8100;SDS011;4093;53.470;9.832;2023-12-28T12:59:25;10.27;;;3.90;;
8100;SDS011;4093;53.470;9.832;2023-12-28T13:01:53;15.80;;;4.40;;
8100;SDS011;4093;53.470;9.832;2023-12-28T13:04:21;12.00;;;3.53;;
8100;SDS011;4093;53.470;9.832;2023-12-28T13:06:49;12.10;;;4.03;;
8100;SDS011;4093;53.470;9.832;2023-12-28T13:09:17;17.40;;;3.97;;
8100;SDS011;4093;53.470;9.832;2023-12-28T13:11:45;6.57;;;3.27;;
8100;SDS011;4093;53.470;9.832;2023-12-28T13:14:17;15.80;;;4.33;;
8100;SDS011;4093;53.470;9.832;2023-12-28T13:16:46;16.40;;;4.53;;
8100;SDS011;4093;53.470;9.832;2023-12-28T13:19:23;11.40;;;3.83;;
8100;SDS011;4093;53.470;9.832;2023-12-28T13:21:51;11.67;;;3.60;;
8100;SDS011;4093;53.470;9.832;2023-12-28T13:24:19;15.13;;;4.03;;
8100;SDS011;4093;53.470;9.832;2023-12-28T13:26:47;14.20;;;3.73;;
8100;SDS011;4093;53.470;9.832;2023-12-28T13:29:14;15.90;;;4.03;;
8100;SDS011;4093;53.470;9.832;2023-12-28T13:31:44;13.97;;;3.90;;
8100;SDS011;4093;53.470;9.832;2023-12-28T13:34:16;10.93;;;3.63;;
8100;SDS011;4093;53.470;9.832;2023-12-28T13:36:45;15.53;;;4.60;;
8100;SDS011;4093;53.470;9.832;2023-12-28T13:39:12;12.97;;;4.00;;
8100;SDS011;4093;53.470;9.832;2023-12-28T13:41:41;13.60;;;3.30;;
8100;SDS011;4093;53.470;9.832;2023-12-28T13:44:09;11.37;;;3.90;;
8100;SDS011;4093;53.470;9.832;2023-12-28T13:46:38;12.33;;;3.97;;
8100;SDS011;4093;53.470;9.832;2023-12-28T13:49:08;11.73;;;4.00;;
8100;SDS011;4093;53.470;9.832;2023-12-28T13:51:36;10.47;;;3.60;;
8100;SDS011;4093;53.470;9.832;2023-12-28T13:54:04;10.40;;;3.20;;
8100;SDS011;4093;53.470;9.832;2023-12-28T13:56:32;14.77;;;4.13;;
8100;SDS011;4093;53.470;9.832;2023-12-28T13:59:00;10.27;;;3.70;;
8100;SDS011;4093;53.470;9.832;2023-12-28T14:01:28;11.73;;;4.37;;
8100;SDS011;4093;53.470;9.832;2023-12-28T14:03:56;14.40;;;3.60;;
8100;SDS011;4093;53.470;9.832;2023-12-28T14:06:25;15.87;;;4.33;;
8100;SDS011;4093;53.470;9.832;2023-12-28T14:08:53;12.83;;;3.97;;
8100;SDS011;4093;53.470;9.832;2023-12-28T14:11:25;14.37;;;3.80;;
8100;SDS011;4093;53.470;9.832;2023-12-28T14:13:53;9.93;;;3.57;;
8100;SDS011;4093;53.470;9.832;2023-12-28T14:16:21;12.90;;;4.00;;
8100;SDS011;4093;53.470;9.832;2023-12-28T14:18:49;11.87;;;3.93;;
8100;SDS011;4093;53.470;9.832;2023-12-28T14:21:18;13.17;;;3.90;;
8100;SDS011;4093;53.470;9.832;2023-12-28T14:23:48;10.70;;;4.07;;
8100;SDS011;4093;53.470;9.832;2023-12-28T14:26:18;12.27;;;3.67;;
8100;SDS011;4093;53.470;9.832;2023-12-28T14:28:48;12.13;;;3.57;;
8100;SDS011;4093;53.470;9.832;2023-12-28T14:31:16;11.57;;;3.63;;
8100;SDS011;4093;53.470;9.832;2023-12-28T14:33:44;14.57;;;4.30;;
8100;SDS011;4093;53.470;9.832;2023-12-28T14:36:15;13.50;;;3.70;;
8100;SDS011;4093;53.470;9.832;2023-12-28T14:38:52;13.67;;;4.37;;
8100;SDS011;4093;53.470;9.832;2023-12-28T14:41:19;12.57;;;4.40;;
8100;SDS011;4093;53.470;9.832;2023-12-28T14:43:47;12.43;;;3.67;;
8100;SDS011;4093;53.470;9.832;2023-12-28T14:46:15;16.60;;;3.43;;
8100;SDS011;4093;53.470;9.832;2023-12-28T14:48:43;14.60;;;4.33;;
8100;SDS011;4093;53.470;9.832;2023-12-28T14:51:10;16.17;;;4.80;;
8100;SDS011;4093;53.470;9.832;2023-12-28T14:53:38;16.90;;;3.73;;
8100;SDS011;4093;53.470;9.832;2023-12-28T14:56:07;13.23;;;4.13;;
8100;SDS011;4093;53.470;9.832;2023-12-28T14:58:35;14.53;;;3.97;;
8100;SDS011;4093;53.470;9.832;2023-12-28T15:01:03;17.67;;;3.73;;
8100;SDS011;4093;53.470;9.832;2023-12-28T15:03:30;15.07;;;3.93;;
8100;SDS011;4093;53.470;9.832;2023-12-28T15:05:58;13.57;;;4.20;;
8100;SDS011;4093;53.470;9.832;2023-12-28T15:08:26;13.43;;;3.90;;
8100;SDS011;4093;53.470;9.832;2023-12-28T15:10:54;15.20;;;4.83;;
8100;SDS011;4093;53.470;9.832;2023-12-28T15:13:24;13.23;;;3.97;;
8100;SDS011;4093;53.470;9.832;2023-12-28T15:15:51;14.27;;;4.37;;
8100;SDS011;4093;53.470;9.832;2023-12-28T15:18:20;16.87;;;4.77;;
8100;SDS011;4093;53.470;9.832;2023-12-28T15:20:48;12.47;;;3.97;;